createdAt,value
2023-01-15T00:01:26.224Z,89711.03
2023-01-15T00:03:55.196Z,89708.59
2023-01-15T00:06:23.806Z,89709.66
2023-01-15T00:08:51.926Z,89707.56
2023-01-15T00:11:19.086Z,89715.31
2023-01-15T00:13:46.416Z,89718.63
2023-01-15T00:16:19.569Z,89722.47
2023-01-15T00:18:58.541Z,89710.94
2023-01-15T00:21:26.809Z,89712.41
2023-01-15T00:23:54.198Z,89704.03
2023-01-15T00:26:25.499Z,89711.44
2023-01-15T00:28:52.375Z,89715.84
2023-01-15T00:31:21.147Z,89719.50
2023-01-15T00:33:48.098Z,89712.66
2023-01-15T00:36:25.859Z,89712.44
2023-01-15T00:38:53.113Z,89714.75
2023-01-15T00:41:20.000Z,89709.41
2023-01-15T00:43:47.020Z,89708.88
2023-01-15T00:46:14.036Z,89703.13
2023-01-15T00:48:41.016Z,89714.69
2023-01-15T00:51:07.921Z,89706.03
2023-01-15T00:53:38.168Z,89709.91
2023-01-15T00:56:05.350Z,89707.53
2023-01-15T00:58:32.311Z,89720.53
2023-01-15T01:01:00.072Z,89718.22
2023-01-15T01:03:28.021Z,89715.66
2023-01-15T01:06:00.122Z,89712.00
2023-01-15T01:08:27.041Z,89709.50
2023-01-15T01:11:07.668Z,89717.34
2023-01-15T01:13:35.477Z,89717.94
2023-01-15T01:16:02.773Z,89716.25
2023-01-15T01:18:30.029Z,89715.50
2023-01-15T01:20:57.343Z,89715.19
2023-01-15T01:23:24.753Z,89711.50
2023-01-15T01:25:51.995Z,89720.50
2023-01-15T01:28:18.954Z,89712.63
2023-01-15T01:30:45.857Z,89711.94
2023-01-15T01:33:12.840Z,89708.16
2023-01-15T01:35:39.666Z,89705.34
2023-01-15T01:38:06.604Z,89695.34
2023-01-15T01:40:33.522Z,89693.81
2023-01-15T01:43:00.404Z,89698.56
2023-01-15T01:45:34.009Z,89693.19
2023-01-15T01:48:06.515Z,89697.25
2023-01-15T01:50:35.231Z,89694.16
2023-01-15T01:53:08.498Z,89699.50
2023-01-15T01:55:37.126Z,89695.81
2023-01-15T01:58:06.856Z,89702.81
2023-01-15T02:00:36.836Z,89704.56
2023-01-15T02:03:07.221Z,89706.34
2023-01-15T02:05:38.580Z,89699.56
2023-01-15T02:08:07.475Z,89708.56
2023-01-15T02:10:34.616Z,89711.63
2023-01-15T02:13:11.269Z,89709.81
2023-01-15T02:15:47.203Z,89705.66
2023-01-15T02:18:28.410Z,89701.13
2023-01-15T02:21:05.039Z,89704.28
2023-01-15T02:24:20.484Z,89693.97
2023-01-15T02:27:15.377Z,89704.03
2023-01-15T02:30:04.494Z,89704.53
2023-01-15T02:32:55.558Z,89703.91
2023-01-15T02:35:29.475Z,89699.50
2023-01-15T02:38:01.207Z,89701.75
2023-01-15T02:40:29.381Z,89700.16
2023-01-15T02:42:59.705Z,89703.59
2023-01-15T02:45:31.323Z,89695.34
2023-01-15T02:48:05.846Z,89705.38
2023-01-15T02:50:37.733Z,89701.28
2023-01-15T02:53:10.181Z,89704.69
2023-01-15T02:55:42.367Z,89701.06
2023-01-15T02:58:14.550Z,89700.47
2023-01-15T03:00:44.952Z,89699.72
2023-01-15T03:03:25.337Z,89695.41
2023-01-15T03:06:04.599Z,89695.84
2023-01-15T03:08:31.882Z,89706.44
2023-01-15T03:11:17.198Z,89696.25
2023-01-15T03:13:49.430Z,89704.28
2023-01-15T03:16:34.695Z,89707.66
2023-01-15T03:19:32.381Z,89705.31
2023-01-15T03:22:38.897Z,89708.13
2023-01-15T03:25:15.181Z,89710.34
2023-01-15T03:27:42.239Z,89717.22
2023-01-15T03:30:14.018Z,89718.25
2023-01-15T03:32:41.791Z,89721.44
2023-01-15T03:35:29.515Z,89724.47
2023-01-15T03:37:56.429Z,89715.31
2023-01-15T03:40:23.518Z,89716.56
2023-01-15T03:43:06.002Z,89715.81
2023-01-15T03:45:38.236Z,89722.13
2023-01-15T03:48:31.041Z,89723.25
2023-01-15T03:51:22.364Z,89729.00
2023-01-15T03:53:50.946Z,89721.34
2023-01-15T03:56:29.370Z,89734.38
2023-01-15T03:59:11.952Z,89732.94
2023-01-15T04:01:42.938Z,89736.16
2023-01-15T04:04:11.612Z,89725.63
2023-01-15T04:06:40.349Z,89731.00
2023-01-15T04:09:10.931Z,89725.16
2023-01-15T04:11:38.264Z,89724.41
2023-01-15T04:14:06.302Z,89728.31
2023-01-15T04:16:34.145Z,89736.47
2023-01-15T04:19:01.040Z,89728.56
2023-01-15T04:21:28.039Z,89735.09
2023-01-15T04:23:55.063Z,89734.44
2023-01-15T04:26:22.007Z,89732.00
2023-01-15T04:28:48.995Z,89733.88
2023-01-15T04:31:16.103Z,89738.72
2023-01-15T04:33:43.041Z,89732.91
2023-01-15T04:36:10.587Z,89739.78
2023-01-15T04:38:38.343Z,89743.63
2023-01-15T04:41:05.826Z,89739.78
2023-01-15T04:43:32.655Z,89751.03
2023-01-15T04:46:00.332Z,89753.47
2023-01-15T04:48:27.463Z,89743.81
2023-01-15T04:50:54.959Z,89741.41
2023-01-15T04:53:21.922Z,89753.16
2023-01-15T04:55:48.887Z,89744.88
2023-01-15T04:58:15.942Z,89749.56
2023-01-15T05:00:42.872Z,89747.34
2023-01-15T05:03:09.749Z,89749.03
2023-01-15T05:05:36.583Z,89754.53
2023-01-15T05:08:03.771Z,89752.53
2023-01-15T05:10:30.723Z,89752.97
2023-01-15T05:12:57.609Z,89756.13
2023-01-15T05:15:24.563Z,89759.63
2023-01-15T05:17:51.553Z,89762.31
2023-01-15T05:20:18.493Z,89766.22
2023-01-15T05:22:45.365Z,89761.38
2023-01-15T05:25:12.343Z,89754.78
2023-01-15T05:27:39.336Z,89759.63
2023-01-15T05:30:06.904Z,89757.97
2023-01-15T05:32:33.718Z,89764.03
2023-01-15T05:35:00.652Z,89756.78
2023-01-15T05:37:30.869Z,89760.50
2023-01-15T05:39:57.963Z,89762.81
2023-01-15T05:42:24.825Z,89765.50
2023-01-15T05:44:52.602Z,89763.25
2023-01-15T05:47:19.567Z,89777.34
2023-01-15T05:49:46.418Z,89780.06
2023-01-15T05:52:13.342Z,89777.38
2023-01-15T05:54:40.279Z,89769.63
2023-01-15T05:57:11.893Z,89782.84
2023-01-15T05:59:39.319Z,89778.19
2023-01-15T06:02:06.253Z,89786.97
2023-01-15T06:04:33.316Z,89787.94
2023-01-15T06:07:00.303Z,89786.75
2023-01-15T06:09:27.893Z,89789.31
2023-01-15T06:11:54.918Z,89791.06
2023-01-15T06:14:22.119Z,89793.94
2023-01-15T06:16:49.033Z,89796.22
2023-01-15T06:19:15.993Z,89797.53
2023-01-15T06:21:42.972Z,89799.97
2023-01-15T06:24:10.389Z,89805.41
2023-01-15T06:26:38.244Z,89804.31
2023-01-15T06:29:05.192Z,89802.78
2023-01-15T06:31:32.313Z,89800.72
2023-01-15T06:33:59.451Z,89805.19
2023-01-15T06:36:27.640Z,89812.88
2023-01-15T06:38:55.769Z,89812.31
2023-01-15T06:41:25.479Z,89812.03
2023-01-15T06:43:52.717Z,89807.56
2023-01-15T06:46:19.640Z,89812.56
2023-01-15T06:48:46.596Z,89811.47
2023-01-15T06:51:13.624Z,89811.94
2023-01-15T06:53:40.548Z,89809.81
2023-01-15T06:56:07.851Z,89818.72
2023-01-15T06:58:34.852Z,89817.06
2023-01-15T07:01:06.859Z,89816.75
2023-01-15T07:03:33.773Z,89812.28
2023-01-15T07:06:09.412Z,89816.47
2023-01-15T07:08:36.356Z,89820.50
2023-01-15T07:11:08.938Z,89813.97
2023-01-15T07:13:36.765Z,89812.56
2023-01-15T07:16:05.190Z,89811.53
2023-01-15T07:18:33.675Z,89816.69
2023-01-15T07:21:01.237Z,89822.47
2023-01-15T07:23:28.472Z,89813.09
2023-01-15T07:25:57.813Z,89813.72
2023-01-15T07:28:24.758Z,89810.91
2023-01-15T07:30:54.746Z,89817.81
2023-01-15T07:33:23.940Z,89817.34
2023-01-15T07:35:50.875Z,89819.78
2023-01-15T07:38:17.867Z,89817.41
2023-01-15T07:40:44.796Z,89814.13
2023-01-15T07:43:11.862Z,89822.63
2023-01-15T07:45:43.466Z,89821.34
2023-01-15T07:48:11.342Z,89825.34
2023-01-15T07:50:41.769Z,89822.50
2023-01-15T07:53:08.660Z,89824.47
2023-01-15T07:55:36.537Z,89824.72
2023-01-15T07:58:03.723Z,89826.94
2023-01-15T08:00:30.661Z,89827.56
2023-01-15T08:02:58.936Z,89833.75
2023-01-15T08:05:25.848Z,89826.94
2023-01-15T08:07:52.714Z,89833.91
2023-01-15T08:10:19.793Z,89832.50
2023-01-15T08:12:49.853Z,89832.50
2023-01-15T08:15:16.863Z,89832.38
2023-01-15T08:17:49.502Z,89834.56
2023-01-15T08:20:25.313Z,89825.94
2023-01-15T08:22:52.547Z,89825.13
2023-01-15T08:25:22.883Z,89825.88
2023-01-15T08:27:52.898Z,89828.72
2023-01-15T08:30:24.538Z,89828.69
2023-01-15T08:32:51.501Z,89828.50
2023-01-15T08:35:18.501Z,89828.13
2023-01-15T08:37:45.572Z,89822.44
2023-01-15T08:40:12.761Z,89818.16
2023-01-15T08:42:40.125Z,89821.09
2023-01-15T08:45:08.122Z,89814.81
2023-01-15T08:47:35.092Z,89808.84
2023-01-15T08:50:02.034Z,89806.72
2023-01-15T08:52:28.926Z,89799.47
2023-01-15T08:54:55.848Z,89794.13
2023-01-15T08:57:22.847Z,89792.94
2023-01-15T08:59:49.885Z,89791.66
2023-01-15T09:02:16.932Z,89787.38
2023-01-15T09:04:43.966Z,89787.47
2023-01-15T09:07:11.478Z,89780.13
2023-01-15T09:09:39.241Z,89780.72
2023-01-15T09:12:06.300Z,89777.03
2023-01-15T09:14:56.823Z,89775.44
2023-01-15T09:17:23.068Z,89768.88
2023-01-15T09:19:50.150Z,89764.38
2023-01-15T09:22:17.109Z,89759.50
2023-01-15T09:24:44.082Z,89759.59
2023-01-15T09:27:14.363Z,89751.47
2023-01-15T09:29:41.313Z,89751.47
2023-01-15T09:32:08.253Z,89752.03
2023-01-15T09:34:37.443Z,89747.59
2023-01-15T09:37:04.474Z,89734.94
2023-01-15T09:39:31.734Z,89729.09
2023-01-15T09:42:07.784Z,89728.78
2023-01-15T09:44:52.280Z,89726.44
2023-01-15T09:47:24.315Z,89731.19
2023-01-15T09:50:19.020Z,89731.19
2023-01-15T09:52:58.078Z,89720.78
2023-01-15T09:55:27.049Z,89720.47
2023-01-15T09:58:00.708Z,89715.91
2023-01-15T10:00:33.487Z,89718.13
2023-01-15T10:03:10.561Z,89706.50
2023-01-15T10:06:08.389Z,89706.50
2023-01-15T10:08:40.404Z,89706.78
2023-01-15T10:11:34.837Z,89705.63
2023-01-15T10:14:16.047Z,89704.72
2023-01-15T10:16:42.927Z,89689.59
2023-01-15T10:19:10.935Z,89686.50
2023-01-15T10:22:07.892Z,89683.22
2023-01-15T10:24:48.192Z,89685.31
2023-01-15T10:27:22.384Z,89676.91
2023-01-15T10:30:00.485Z,89674.84
2023-01-15T10:33:02.466Z,89676.94
2023-01-15T10:35:42.108Z,89670.81
2023-01-15T10:38:17.980Z,89685.53
2023-01-15T10:40:53.753Z,89682.34
2023-01-15T10:43:37.403Z,89672.88
2023-01-15T10:46:13.112Z,89672.06
2023-01-15T10:49:00.063Z,89659.53
2023-01-15T10:51:54.932Z,89660.59
2023-01-15T10:54:48.501Z,89655.81
2023-01-15T10:57:33.613Z,89648.81
2023-01-15T11:00:01.776Z,89652.72
2023-01-15T11:02:38.472Z,89645.28
2023-01-15T11:05:06.415Z,89647.75
2023-01-15T11:07:59.384Z,89644.53
2023-01-15T11:10:27.960Z,89646.00
2023-01-15T11:13:16.669Z,89635.56
2023-01-15T11:15:50.576Z,89634.56
2023-01-15T11:18:27.918Z,89634.00
2023-01-15T11:20:55.068Z,89627.81
2023-01-15T11:23:22.453Z,89627.53
2023-01-15T11:25:55.819Z,89622.19
2023-01-15T11:28:40.624Z,89618.28
2023-01-15T11:31:08.719Z,89620.66
2023-01-15T11:33:37.018Z,89622.53
2023-01-15T11:36:19.765Z,89622.59
2023-01-15T11:38:49.675Z,89614.69
2023-01-15T11:41:24.162Z,89614.84
2023-01-15T11:43:55.859Z,89611.63
2023-01-15T11:46:33.148Z,89618.47
2023-01-15T11:48:59.946Z,89615.66
2023-01-15T11:51:27.960Z,89613.25
2023-01-15T11:54:00.277Z,89613.09
2023-01-15T11:56:30.222Z,89611.94
2023-01-15T11:59:01.481Z,89606.03
2023-01-15T12:01:46.350Z,89610.41
2023-01-15T12:04:46.529Z,89606.94
2023-01-15T12:07:14.545Z,89604.22
2023-01-15T12:09:47.318Z,89602.25
2023-01-15T12:12:32.377Z,89600.16
2023-01-15T12:15:07.109Z,89597.97
2023-01-15T12:17:55.050Z,89595.25
2023-01-15T12:20:34.952Z,89596.88
2023-01-15T12:23:10.300Z,89591.53
2023-01-15T12:26:07.075Z,89599.66
2023-01-15T12:28:37.949Z,89599.72
2023-01-15T12:31:08.852Z,89603.59
2023-01-15T12:33:56.113Z,89597.47
2023-01-15T12:36:55.216Z,89601.25
2023-01-15T12:39:38.810Z,89602.69
2023-01-15T12:42:11.408Z,89604.03
2023-01-15T12:44:47.001Z,89601.94
2023-01-15T12:47:20.453Z,89596.72
2023-01-15T12:49:53.567Z,89596.50
2023-01-15T12:52:26.813Z,89590.09
2023-01-15T12:55:09.791Z,89593.41
2023-01-15T12:57:44.063Z,89599.50
2023-01-15T13:00:14.605Z,89594.44
2023-01-15T13:02:53.694Z,89602.81
2023-01-15T13:05:27.832Z,89596.34
2023-01-15T13:08:01.891Z,89593.13
2023-01-15T13:10:30.544Z,89603.06
2023-01-15T13:13:11.745Z,89611.75
2023-01-15T13:15:42.669Z,89609.28
2023-01-15T13:19:03.912Z,89612.84
2023-01-15T13:21:34.268Z,89619.19
2023-01-15T13:24:27.453Z,89613.28
2023-01-15T13:27:05.292Z,89610.63
2023-01-15T13:29:34.904Z,89609.34
2023-01-15T13:32:22.783Z,89613.44
2023-01-15T13:34:55.311Z,89611.09
2023-01-15T13:37:32.406Z,89615.94
2023-01-15T13:40:04.965Z,89612.84
2023-01-15T13:42:32.782Z,89616.81
2023-01-15T13:45:19.583Z,89617.56
2023-01-15T13:47:51.983Z,89620.22
2023-01-15T13:50:29.202Z,89626.69
2023-01-15T13:53:14.468Z,89620.06
2023-01-15T13:55:53.967Z,89623.44
2023-01-15T13:58:32.083Z,89616.84
2023-01-15T14:01:08.835Z,89622.72
2023-01-15T14:03:38.224Z,89613.19
2023-01-15T14:06:08.552Z,89615.09
2023-01-15T14:08:44.158Z,89616.25
2023-01-15T14:11:29.468Z,89615.84
2023-01-15T14:14:34.609Z,89622.16
2023-01-15T14:17:28.787Z,89618.31
2023-01-15T14:20:15.511Z,89621.88
2023-01-15T14:23:07.401Z,89617.88
2023-01-15T14:25:49.415Z,89619.78
2023-01-15T14:28:55.662Z,89616.41
2023-01-15T14:31:40.576Z,89613.63
2023-01-15T14:34:29.553Z,89610.97
2023-01-15T14:37:05.379Z,89608.34
2023-01-15T14:39:52.921Z,89616.41
2023-01-15T14:42:23.009Z,89606.41
2023-01-15T14:45:01.250Z,89615.09
2023-01-15T14:47:36.709Z,89617.31
2023-01-15T14:50:21.740Z,89616.25
2023-01-15T14:52:50.277Z,89617.88
2023-01-15T14:55:19.917Z,89609.94
2023-01-15T14:58:12.462Z,89618.56
2023-01-15T15:00:44.873Z,89613.13
2023-01-15T15:03:20.980Z,89617.25
2023-01-15T15:05:48.297Z,89624.47
2023-01-15T15:08:18.365Z,89619.75
2023-01-15T15:10:51.738Z,89622.38
2023-01-15T15:13:41.211Z,89622.94
2023-01-15T15:16:14.411Z,89621.47
2023-01-15T15:18:58.271Z,89631.19
2023-01-15T15:21:29.787Z,89638.03
2023-01-15T15:24:03.733Z,89631.75
2023-01-15T15:26:33.418Z,89630.84
2023-01-15T15:29:03.037Z,89630.72
2023-01-15T15:31:37.981Z,89624.09
2023-01-15T15:34:07.654Z,89629.25
2023-01-15T15:36:39.558Z,89629.09
2023-01-15T15:39:34.887Z,89632.63
2023-01-15T15:42:02.986Z,89635.25
2023-01-15T15:44:57.200Z,89643.78
2023-01-15T15:47:26.793Z,89628.53
2023-01-15T15:49:53.790Z,89634.56
2023-01-15T15:52:23.768Z,89632.66
2023-01-15T15:55:01.633Z,89635.41
2023-01-15T15:57:31.317Z,89625.84
2023-01-15T16:00:00.437Z,89635.69
2023-01-15T16:02:38.280Z,89626.44
2023-01-15T16:05:23.256Z,89633.59
2023-01-15T16:07:50.788Z,89634.03
2023-01-15T16:10:30.590Z,89630.78
2023-01-15T16:13:03.383Z,89626.38
2023-01-15T16:15:34.291Z,89633.09
2023-01-15T16:18:03.196Z,89640.41
2023-01-15T16:20:30.404Z,89634.19
2023-01-15T16:23:04.724Z,89628.63
2023-01-15T16:25:42.004Z,89626.53
2023-01-15T16:28:27.423Z,89628.78
2023-01-15T16:31:02.168Z,89636.19
2023-01-15T16:33:29.971Z,89631.03
2023-01-15T16:36:00.981Z,89633.59
2023-01-15T16:38:27.973Z,89641.09
2023-01-15T16:40:54.998Z,89643.28
2023-01-15T16:43:24.877Z,89644.88
2023-01-15T16:46:17.415Z,89648.00
2023-01-15T16:48:44.452Z,89626.59
2023-01-15T16:51:34.133Z,89639.13
2023-01-15T16:54:03.838Z,89636.66
2023-01-15T16:56:36.614Z,89643.53
2023-01-15T16:59:24.202Z,89640.59
2023-01-15T17:01:51.486Z,89659.66
2023-01-15T17:04:27.945Z,89652.47
2023-01-15T17:07:20.847Z,89653.78
2023-01-15T17:09:49.521Z,89653.16
2023-01-15T17:12:27.071Z,89653.16
2023-01-15T17:14:54.544Z,89656.66
2023-01-15T17:17:21.327Z,89655.72
2023-01-15T17:19:52.823Z,89652.28
2023-01-15T17:22:24.149Z,89653.56
2023-01-15T17:24:56.494Z,89660.53
2023-01-15T17:27:24.964Z,89655.91
2023-01-15T17:29:52.607Z,89650.88
2023-01-15T17:32:34.441Z,89657.91
2023-01-15T17:35:01.287Z,89658.47
2023-01-15T17:37:28.214Z,89663.09
2023-01-15T17:39:55.139Z,89659.84
2023-01-15T17:42:21.962Z,89662.91
2023-01-15T17:44:48.899Z,89665.13
2023-01-15T17:47:15.908Z,89663.97
2023-01-15T17:49:42.799Z,89659.97
2023-01-15T17:52:21.037Z,89663.03
2023-01-15T17:54:47.836Z,89669.59
2023-01-15T17:57:14.906Z,89664.09
2023-01-15T17:59:41.693Z,89663.16
2023-01-15T18:02:15.874Z,89668.75
2023-01-15T18:04:49.072Z,89661.72
2023-01-15T18:07:17.661Z,89665.09
2023-01-15T18:09:45.124Z,89665.31
2023-01-15T18:12:13.067Z,89664.44
2023-01-15T18:14:40.460Z,89663.53
2023-01-15T18:17:07.453Z,89660.03
2023-01-15T18:19:34.565Z,89659.59
2023-01-15T18:22:01.796Z,89663.19
2023-01-15T18:24:28.766Z,89660.03
2023-01-15T18:26:55.711Z,89660.25
2023-01-15T18:29:22.638Z,89664.44
2023-01-15T18:31:49.772Z,89662.38
2023-01-15T18:34:20.813Z,89657.00
2023-01-15T18:36:47.800Z,89653.63
2023-01-15T18:39:19.967Z,89656.91
2023-01-15T18:41:46.917Z,89660.59
2023-01-15T18:44:17.523Z,89657.84
2023-01-15T18:46:45.711Z,89653.63
2023-01-15T18:49:12.881Z,89658.06
2023-01-15T18:51:39.884Z,89651.72
2023-01-15T18:54:07.040Z,89651.00
2023-01-15T18:56:33.995Z,89657.00
2023-01-15T18:59:00.895Z,89658.91
2023-01-15T19:01:27.887Z,89651.34
2023-01-15T19:03:54.912Z,89650.59
2023-01-15T19:06:21.894Z,89651.66
2023-01-15T19:08:48.918Z,89655.13
2023-01-15T19:11:16.385Z,89652.72
2023-01-15T19:13:43.302Z,89648.91
2023-01-15T19:16:10.926Z,89653.44
2023-01-15T19:18:38.457Z,89645.72
2023-01-15T19:21:08.653Z,89652.47
2023-01-15T19:23:35.525Z,89654.06
2023-01-15T19:26:03.873Z,89649.53
2023-01-15T19:28:30.871Z,89651.63
2023-01-15T19:30:57.739Z,89653.00
2023-01-15T19:33:24.722Z,89649.94
2023-01-15T19:35:53.573Z,89655.72
2023-01-15T19:38:20.557Z,89653.31
2023-01-15T19:40:47.425Z,89651.09
2023-01-15T19:43:14.338Z,89657.41
2023-01-15T19:45:44.398Z,89650.97
2023-01-15T19:48:14.817Z,89646.66
2023-01-15T19:50:43.455Z,89653.31
2023-01-15T19:53:11.531Z,89654.16
2023-01-15T19:55:41.750Z,89653.31
2023-01-15T19:58:10.923Z,89646.06
2023-01-15T20:00:39.233Z,89648.81
2023-01-15T20:03:06.935Z,89650.28
2023-01-15T20:05:33.941Z,89645.31
2023-01-15T20:08:00.891Z,89645.41
2023-01-15T20:10:29.287Z,89643.72
2023-01-15T20:12:56.251Z,89650.44
2023-01-15T20:15:23.945Z,89643.06
2023-01-15T20:17:50.927Z,89646.69
2023-01-15T20:20:18.091Z,89653.41
2023-01-15T20:22:45.507Z,89646.66
2023-01-15T20:25:12.543Z,89649.13
2023-01-15T20:27:40.129Z,89646.94
2023-01-15T20:30:18.635Z,89647.22
2023-01-15T20:32:45.496Z,89655.41
2023-01-15T20:35:15.471Z,89647.06
2023-01-15T20:37:43.005Z,89646.47
2023-01-15T20:40:10.913Z,89646.69
2023-01-15T20:42:37.783Z,89643.31
2023-01-15T20:45:05.355Z,89647.25
2023-01-15T20:47:32.221Z,89645.41
2023-01-15T20:49:59.191Z,89642.84
2023-01-15T20:52:26.312Z,89640.25
2023-01-15T20:54:53.259Z,89643.31
2023-01-15T20:57:20.167Z,89641.13
2023-01-15T20:59:47.024Z,89635.03
2023-01-15T21:02:14.059Z,89641.78
2023-01-15T21:04:41.026Z,89642.47
2023-01-15T21:07:07.805Z,89641.69
2023-01-15T21:09:34.617Z,89632.22
2023-01-15T21:12:01.567Z,89639.09
2023-01-15T21:14:28.405Z,89630.50
2023-01-15T21:16:55.398Z,89628.22
2023-01-15T21:19:23.449Z,89629.69
2023-01-15T21:21:50.805Z,89627.41
2023-01-15T21:24:17.869Z,89627.56
2023-01-15T21:26:44.668Z,89630.97
2023-01-15T21:29:11.562Z,89626.66
2023-01-15T21:31:38.506Z,89624.06
2023-01-15T21:34:05.434Z,89614.28
2023-01-15T21:36:32.341Z,89616.78
2023-01-15T21:38:59.356Z,89627.59
2023-01-15T21:41:27.190Z,89619.28
2023-01-15T21:43:54.118Z,89620.84
2023-01-15T21:46:20.932Z,89616.34
2023-01-15T21:48:47.970Z,89619.94
2023-01-15T21:51:14.858Z,89621.72
2023-01-15T21:53:41.833Z,89616.16
2023-01-15T21:56:08.673Z,89609.75
2023-01-15T21:58:39.855Z,89612.38
2023-01-15T22:01:16.297Z,89601.88
2023-01-15T22:03:43.221Z,89604.81
2023-01-15T22:06:10.743Z,89606.38
2023-01-15T22:08:37.839Z,89605.84
2023-01-15T22:11:07.285Z,89599.28
2023-01-15T22:13:35.244Z,89601.16
2023-01-15T22:16:02.487Z,89603.63
2023-01-15T22:18:29.516Z,89594.25
2023-01-15T22:21:01.195Z,89606.47
2023-01-15T22:23:28.431Z,89601.22
2023-01-15T22:25:55.765Z,89598.16
2023-01-15T22:28:22.897Z,89595.22
2023-01-15T22:30:50.445Z,89596.38
2023-01-15T22:33:17.660Z,89596.38
2023-01-15T22:35:44.640Z,89595.75
2023-01-15T22:38:11.719Z,89601.72
2023-01-15T22:40:38.649Z,89602.06
2023-01-15T22:43:05.745Z,89595.50
2023-01-15T22:45:32.532Z,89601.13
2023-01-15T22:47:59.585Z,89603.41
2023-01-15T22:50:26.530Z,89594.50
2023-01-15T22:52:53.342Z,89589.97
2023-01-15T22:55:20.355Z,89588.72
2023-01-15T22:57:47.382Z,89597.13
2023-01-15T23:00:14.834Z,89586.78
2023-01-15T23:02:41.795Z,89589.34
2023-01-15T23:05:09.368Z,89593.69
2023-01-15T23:07:38.847Z,89584.16
2023-01-15T23:10:08.885Z,89589.06
2023-01-15T23:12:35.835Z,89584.91
2023-01-15T23:15:02.661Z,89587.34
2023-01-15T23:17:29.730Z,89584.19
2023-01-15T23:19:56.789Z,89592.50
2023-01-15T23:22:23.719Z,89585.63
2023-01-15T23:24:50.742Z,89583.06
2023-01-15T23:27:17.738Z,89586.50
2023-01-15T23:29:44.566Z,89576.53
2023-01-15T23:32:11.528Z,89581.53
2023-01-15T23:34:38.432Z,89581.53
2023-01-15T23:37:05.373Z,89573.34
2023-01-15T23:39:32.207Z,89582.28
2023-01-15T23:41:59.138Z,89584.88
2023-01-15T23:44:26.130Z,89572.66
2023-01-15T23:46:53.057Z,89577.81
2023-01-15T23:49:19.861Z,89572.19
2023-01-15T23:51:46.790Z,89577.13
2023-01-15T23:54:13.705Z,89581.66
2023-01-15T23:56:40.689Z,89582.00
2023-01-15T23:59:07.593Z,89573.34
